createdAt,value
2018-02-20T00:01:18.414Z,3.86
2018-02-20T00:03:45.989Z,3.84
2018-02-20T00:06:13.575Z,3.79
2018-02-20T00:08:41.071Z,3.85
2018-02-20T00:11:08.610Z,3.86
2018-02-20T00:13:36.112Z,3.84
2018-02-20T00:16:03.715Z,3.77
2018-02-20T00:18:31.227Z,3.81
2018-02-20T00:20:58.726Z,3.78
2018-02-20T00:23:26.249Z,3.80
2018-02-20T00:25:53.767Z,3.81
2018-02-20T00:28:21.280Z,3.83
2018-02-20T00:30:48.877Z,3.81
2018-02-20T00:33:16.366Z,3.84
2018-02-20T00:35:43.891Z,3.87
2018-02-20T00:38:11.408Z,3.86
2018-02-20T00:40:39.082Z,3.76
2018-02-20T00:43:06.555Z,3.78
2018-02-20T00:45:34.104Z,3.80
2018-02-20T00:48:01.601Z,3.78
2018-02-20T00:50:29.168Z,3.82
2018-02-20T00:52:56.792Z,3.82
2018-02-20T00:55:24.388Z,3.72
2018-02-20T00:57:51.970Z,3.72
2018-02-20T01:00:19.614Z,3.67
2018-02-20T01:02:47.163Z,3.65
2018-02-20T01:05:14.685Z,3.65
2018-02-20T01:07:42.217Z,3.73
2018-02-20T01:10:09.736Z,3.78
2018-02-20T01:12:37.265Z,3.75
2018-02-20T01:15:04.741Z,3.71
2018-02-20T01:17:32.253Z,3.73
2018-02-20T01:19:59.747Z,3.67
2018-02-20T01:22:27.241Z,3.58
2018-02-20T01:24:54.778Z,3.52
2018-02-20T01:27:22.286Z,3.51
2018-02-20T01:29:49.777Z,3.58
2018-02-20T01:32:17.377Z,3.58
2018-02-20T01:34:44.875Z,3.61
2018-02-20T01:37:12.379Z,3.62
2018-02-20T01:39:39.874Z,3.66
2018-02-20T01:42:07.517Z,3.66
2018-02-20T01:44:35.117Z,3.68
2018-02-20T01:47:02.646Z,3.69
2018-02-20T01:49:30.321Z,3.72
2018-02-20T01:51:57.922Z,3.74
2018-02-20T01:54:25.574Z,3.74
2018-02-20T01:56:53.182Z,3.75
2018-02-20T01:59:20.744Z,3.68
2018-02-20T02:01:48.257Z,3.71
2018-02-20T02:04:15.786Z,3.73
2018-02-20T02:06:43.316Z,3.70
2018-02-20T02:09:11.574Z,3.62
2018-02-20T02:11:39.049Z,3.68
2018-02-20T02:14:06.571Z,3.64
2018-02-20T02:16:34.071Z,3.58
2018-02-20T02:19:01.578Z,3.62
2018-02-20T02:21:29.062Z,3.64
2018-02-20T02:23:56.616Z,3.66
2018-02-20T02:26:24.214Z,3.67
2018-02-20T02:28:51.758Z,3.61
2018-02-20T02:31:19.264Z,3.55
2018-02-20T02:33:46.928Z,3.67
2018-02-20T02:36:14.473Z,3.71
2018-02-20T02:38:42.383Z,3.65
2018-02-20T02:41:10.713Z,3.62
2018-02-20T02:43:38.250Z,3.60
2018-02-20T02:46:05.965Z,3.62
2018-02-20T02:48:33.598Z,3.70
2018-02-20T02:51:01.143Z,3.73
2018-02-20T02:53:28.728Z,3.76
2018-02-20T02:55:56.305Z,3.81
2018-02-20T02:58:23.823Z,3.74
2018-02-20T03:00:51.319Z,3.72
2018-02-20T03:03:18.866Z,3.84
2018-02-20T03:05:46.542Z,3.87
2018-02-20T03:08:14.090Z,3.84
2018-02-20T03:10:41.596Z,3.93
2018-02-20T03:13:09.103Z,3.90
2018-02-20T03:15:36.616Z,3.89
2018-02-20T03:18:04.105Z,3.99
2018-02-20T03:20:31.628Z,3.98
2018-02-20T03:22:59.838Z,4.08
2018-02-20T03:25:27.354Z,3.98
2018-02-20T03:27:54.930Z,3.98
2018-02-20T03:30:22.530Z,3.77
2018-02-20T03:32:50.059Z,3.78
2018-02-20T03:35:17.648Z,3.86
2018-02-20T03:37:45.249Z,3.76
2018-02-20T03:40:12.738Z,3.82
2018-02-20T03:42:40.241Z,3.83
2018-02-20T03:45:07.823Z,3.88
2018-02-20T03:47:35.342Z,3.91
2018-02-20T03:50:02.833Z,3.78
2018-02-20T03:52:30.347Z,3.72
2018-02-20T03:54:57.827Z,3.77
2018-02-20T03:57:25.348Z,3.71
2018-02-20T03:59:52.836Z,3.76
2018-02-20T04:02:20.391Z,3.72
2018-02-20T04:04:47.976Z,3.70
2018-02-20T04:07:15.633Z,3.74
2018-02-20T04:09:43.188Z,3.75
2018-02-20T04:12:10.715Z,3.77
2018-02-20T04:14:38.263Z,3.75
2018-02-20T04:17:05.818Z,3.64
2018-02-20T04:19:33.308Z,3.53
2018-02-20T04:22:00.913Z,3.60
2018-02-20T04:24:28.462Z,3.57
2018-02-20T04:26:56.103Z,3.61
2018-02-20T04:29:23.743Z,3.69
2018-02-20T04:31:51.303Z,3.75
2018-02-20T04:34:18.816Z,3.79
2018-02-20T04:36:46.349Z,3.82
2018-02-20T04:39:14.457Z,3.84
2018-02-20T04:41:41.977Z,3.81
2018-02-20T04:44:09.515Z,3.85
2018-02-20T04:46:37.000Z,3.83
2018-02-20T04:49:04.512Z,3.80
2018-02-20T04:51:32.007Z,3.62
2018-02-20T04:53:59.646Z,3.53
2018-02-20T04:56:27.309Z,3.55
2018-02-20T04:58:54.846Z,3.50
2018-02-20T05:01:22.401Z,3.56
2018-02-20T05:03:49.943Z,3.48
2018-02-20T05:06:17.532Z,3.47
2018-02-20T05:08:45.174Z,3.44
2018-02-20T05:11:12.719Z,3.32
2018-02-20T05:13:40.215Z,3.28
2018-02-20T05:16:07.732Z,3.33
2018-02-20T05:18:35.238Z,3.25
2018-02-20T05:21:02.750Z,3.25
2018-02-20T05:23:30.249Z,3.14
2018-02-20T05:25:57.774Z,3.10
2018-02-20T05:28:25.286Z,3.12
2018-02-20T05:30:52.768Z,3.10
2018-02-20T05:33:20.339Z,3.07
2018-02-20T05:35:47.837Z,3.03
2018-02-20T05:38:15.370Z,3.02
2018-02-20T05:40:42.864Z,3.04
2018-02-20T05:43:10.482Z,3.12
2018-02-20T05:45:37.975Z,3.19
2018-02-20T05:48:05.500Z,3.17
2018-02-20T05:50:33.005Z,3.19
2018-02-20T05:53:00.492Z,3.30
2018-02-20T05:55:28.022Z,3.26
2018-02-20T05:57:56.193Z,3.25
2018-02-20T06:00:23.668Z,3.24
2018-02-20T06:02:51.210Z,3.27
2018-02-20T06:05:18.767Z,3.27
2018-02-20T06:07:46.254Z,3.37
2018-02-20T06:10:13.842Z,3.33
2018-02-20T06:12:41.501Z,3.31
2018-02-20T06:15:09.016Z,3.26
2018-02-20T06:17:36.512Z,3.40
2018-02-20T06:20:04.034Z,3.36
2018-02-20T06:22:31.570Z,3.43
2018-02-20T06:24:59.056Z,3.48
2018-02-20T06:27:27.256Z,3.39
2018-02-20T06:29:54.748Z,3.39
2018-02-20T06:32:22.391Z,3.39
2018-02-20T06:34:49.930Z,3.39
2018-02-20T06:37:17.773Z,3.40
2018-02-20T06:39:45.274Z,3.44
2018-02-20T06:42:12.817Z,3.37
2018-02-20T06:44:40.310Z,3.45
2018-02-20T06:47:07.933Z,3.48
2018-02-20T06:49:35.456Z,3.48
2018-02-20T06:52:02.967Z,3.55
2018-02-20T06:54:30.476Z,3.57
2018-02-20T06:56:58.326Z,3.57
2018-02-20T06:59:26.711Z,3.67
2018-02-20T07:01:54.292Z,3.66
2018-02-20T07:04:21.830Z,3.59
2018-02-20T07:06:49.429Z,3.63
2018-02-20T07:09:16.903Z,3.54
2018-02-20T07:11:44.417Z,3.53
2018-02-20T07:14:11.957Z,3.56
2018-02-20T07:16:39.461Z,3.38
2018-02-20T07:19:07.001Z,3.20
2018-02-20T07:21:34.509Z,3.09
2018-02-20T07:24:02.006Z,3.08
2018-02-20T07:26:29.537Z,3.25
2018-02-20T07:28:57.062Z,3.47
2018-02-20T07:31:24.548Z,3.44
2018-02-20T07:33:52.070Z,3.43
2018-02-20T07:36:19.575Z,3.58
2018-02-20T07:38:47.101Z,3.66
2018-02-20T07:41:14.584Z,3.68
2018-02-20T07:43:42.087Z,3.70
2018-02-20T07:46:09.604Z,3.80
2018-02-20T07:48:37.124Z,3.84
2018-02-20T07:51:05.382Z,3.76
2018-02-20T07:53:32.877Z,3.78
2018-02-20T07:56:00.875Z,3.71
2018-02-20T07:58:28.388Z,3.72
2018-02-20T08:00:55.889Z,3.70
2018-02-20T08:03:23.412Z,3.71
2018-02-20T08:05:50.989Z,3.27
2018-02-20T08:08:18.499Z,3.45
2018-02-20T08:10:45.999Z,3.70
2018-02-20T08:13:13.512Z,3.79
2018-02-20T08:15:41.010Z,3.85
2018-02-20T08:18:08.515Z,3.83
2018-02-20T08:20:36.004Z,3.99
2018-02-20T08:23:03.712Z,4.04
2018-02-20T08:25:31.375Z,4.09
2018-02-20T08:27:58.957Z,4.06
2018-02-20T08:30:26.548Z,4.11
2018-02-20T08:32:54.145Z,4.07
2018-02-20T08:35:21.822Z,4.15
2018-02-20T08:37:49.316Z,4.24
2018-02-20T08:40:16.824Z,4.31
2018-02-20T08:42:44.321Z,4.33
2018-02-20T08:45:11.874Z,4.34
2018-02-20T08:47:39.378Z,4.37
2018-02-20T08:50:06.931Z,4.42
2018-02-20T08:52:34.525Z,4.49
2018-02-20T08:55:02.061Z,4.47
2018-02-20T08:57:29.571Z,4.56
2018-02-20T08:59:57.061Z,4.50
2018-02-20T09:02:24.580Z,4.51
2018-02-20T09:04:52.094Z,4.49
2018-02-20T09:07:19.620Z,4.48
2018-02-20T09:09:47.121Z,4.45
2018-02-20T09:12:14.649Z,4.45
2018-02-20T09:14:42.133Z,4.43
2018-02-20T09:17:09.810Z,4.56
2018-02-20T09:19:37.727Z,4.63
2018-02-20T09:22:05.231Z,4.62
2018-02-20T09:24:32.760Z,4.52
2018-02-20T09:27:00.261Z,4.53
2018-02-20T09:29:27.769Z,4.60
2018-02-20T09:31:55.277Z,4.62
2018-02-20T09:34:22.968Z,4.62
2018-02-20T09:36:50.465Z,4.66
2018-02-20T09:39:17.955Z,4.72
2018-02-20T09:41:45.474Z,4.70
2018-02-20T09:44:13.013Z,4.70
2018-02-20T09:46:41.225Z,4.72
2018-02-20T09:49:08.773Z,4.75
2018-02-20T09:51:36.477Z,4.79
2018-02-20T09:54:03.957Z,4.74
2018-02-20T09:56:31.490Z,4.75
2018-02-20T09:58:58.983Z,4.83
2018-02-20T10:01:26.510Z,4.87
2018-02-20T10:03:54.010Z,4.96
2018-02-20T10:06:21.691Z,5.04
2018-02-20T10:08:49.227Z,5.12
2018-02-20T10:11:16.952Z,5.17
2018-02-20T10:13:44.472Z,5.17
2018-02-20T10:16:11.975Z,5.22
2018-02-20T10:18:39.628Z,5.29
2018-02-20T10:21:07.472Z,5.34
2018-02-20T10:23:35.038Z,5.29
2018-02-20T10:26:02.587Z,5.36
2018-02-20T10:28:30.067Z,5.47
2018-02-20T10:30:57.610Z,5.55
2018-02-20T10:33:25.089Z,5.66
2018-02-20T10:35:52.679Z,5.71
2018-02-20T10:38:20.170Z,5.74
2018-02-20T10:40:47.906Z,5.79
2018-02-20T10:43:15.699Z,5.90
2018-02-20T10:45:43.195Z,5.96
2018-02-20T10:48:10.737Z,5.94
2018-02-20T10:50:38.252Z,5.77
2018-02-20T10:53:05.747Z,5.77
2018-02-20T10:55:33.604Z,5.75
2018-02-20T10:58:01.102Z,5.64
2018-02-20T11:00:28.706Z,5.84
2018-02-20T11:02:56.954Z,5.90
2018-02-20T11:05:24.476Z,5.83
2018-02-20T11:07:51.976Z,5.70
2018-02-20T11:10:19.608Z,5.61
2018-02-20T11:12:47.112Z,5.65
2018-02-20T11:15:14.638Z,5.89
2018-02-20T11:17:42.168Z,5.94
2018-02-20T11:20:09.760Z,5.91
2018-02-20T11:22:37.245Z,5.97
2018-02-20T11:25:04.744Z,6.05
2018-02-20T11:27:32.252Z,6.04
2018-02-20T11:29:59.741Z,5.94
2018-02-20T11:32:27.275Z,5.83
2018-02-20T11:34:54.774Z,5.70
2018-02-20T11:37:22.359Z,5.82
2018-02-20T11:39:49.872Z,5.94
2018-02-20T11:42:17.360Z,6.00
2018-02-20T11:44:45.633Z,5.99
2018-02-20T11:47:13.134Z,6.00
2018-02-20T11:49:40.648Z,5.54
2018-02-20T11:52:08.130Z,5.44
2018-02-20T11:54:35.643Z,5.35
2018-02-20T11:57:03.132Z,5.36
2018-02-20T11:59:30.654Z,5.46
2018-02-20T12:01:58.379Z,5.54
2018-02-20T12:04:25.930Z,5.57
2018-02-20T12:06:53.520Z,5.65
2018-02-20T12:09:21.051Z,5.63
2018-02-20T12:11:48.556Z,5.84
2018-02-20T12:14:16.069Z,5.94
2018-02-20T12:16:43.605Z,6.12
2018-02-20T12:19:11.098Z,6.21
2018-02-20T12:21:38.614Z,6.08
2018-02-20T12:24:06.113Z,6.08
2018-02-20T12:26:33.625Z,5.94
2018-02-20T12:29:01.119Z,5.86
2018-02-20T12:31:28.661Z,5.74
2018-02-20T12:33:56.163Z,5.48
2018-02-20T12:36:24.051Z,5.66
2018-02-20T12:38:51.575Z,5.79
2018-02-20T12:41:19.084Z,5.71
2018-02-20T12:43:46.650Z,5.70
2018-02-20T12:46:14.131Z,5.81
2018-02-20T12:48:41.667Z,5.64
2018-02-20T12:51:09.180Z,5.63
2018-02-20T12:53:36.861Z,5.69
2018-02-20T12:56:04.343Z,5.63
2018-02-20T12:58:31.940Z,5.79
2018-02-20T13:00:59.498Z,5.76
2018-02-20T13:03:27.082Z,5.60
2018-02-20T13:05:54.594Z,5.50
2018-02-20T13:08:22.119Z,5.68
2018-02-20T13:10:49.617Z,5.64
2018-02-20T13:13:17.758Z,5.45
2018-02-20T13:15:45.327Z,5.28
2018-02-20T13:18:12.856Z,5.39
2018-02-20T13:20:40.910Z,5.56
2018-02-20T13:23:08.447Z,5.56
2018-02-20T13:25:35.946Z,5.47
2018-02-20T13:28:03.481Z,5.22
2018-02-20T13:30:30.970Z,4.96
2018-02-20T13:32:58.478Z,5.07
2018-02-20T13:35:25.983Z,5.08
2018-02-20T13:37:53.492Z,5.08
2018-02-20T13:40:21.012Z,5.00
2018-02-20T13:42:48.536Z,4.60
2018-02-20T13:45:16.080Z,4.78
2018-02-20T13:47:43.598Z,4.85
2018-02-20T13:50:11.144Z,4.95
2018-02-20T13:52:38.646Z,5.10
2018-02-20T13:55:06.147Z,5.02
2018-02-20T13:57:35.093Z,5.07
2018-02-20T14:00:02.607Z,5.16
2018-02-20T14:02:30.252Z,5.00
2018-02-20T14:04:57.753Z,5.09
2018-02-20T14:07:25.272Z,5.00
2018-02-20T14:09:52.777Z,4.94
2018-02-20T14:12:20.293Z,4.89
2018-02-20T14:14:47.837Z,4.94
2018-02-20T14:17:15.427Z,4.69
2018-02-20T14:19:43.100Z,4.71
2018-02-20T14:22:10.650Z,4.87
2018-02-20T14:24:38.131Z,4.95
2018-02-20T14:27:05.613Z,4.85
2018-02-20T14:29:33.756Z,4.77
2018-02-20T14:32:01.306Z,4.84
2018-02-20T14:34:28.892Z,4.78
2018-02-20T14:36:56.600Z,4.73
2018-02-20T14:39:24.093Z,4.73
2018-02-20T14:41:51.634Z,4.70
2018-02-20T14:44:19.500Z,4.73
2018-02-20T14:46:47.057Z,4.87
2018-02-20T14:49:14.583Z,4.91
2018-02-20T14:51:42.092Z,4.84
2018-02-20T14:54:09.636Z,4.78
2018-02-20T14:56:37.165Z,4.72
2018-02-20T14:59:04.705Z,4.73
2018-02-20T15:01:32.199Z,4.48
2018-02-20T15:03:59.800Z,4.41
2018-02-20T15:06:27.418Z,4.49
2018-02-20T15:08:55.047Z,4.63
2018-02-20T15:11:22.637Z,4.85
2018-02-20T15:13:50.196Z,4.78
2018-02-20T15:16:17.882Z,4.75
2018-02-20T15:18:45.410Z,4.67
2018-02-20T15:21:13.020Z,4.60
2018-02-20T15:23:40.537Z,4.61
2018-02-20T15:26:08.059Z,4.31
2018-02-20T15:28:35.576Z,4.09
2018-02-20T15:31:03.068Z,4.24
2018-02-20T15:33:30.597Z,4.36
2018-02-20T15:35:58.070Z,4.42
2018-02-20T15:38:25.592Z,4.52
2018-02-20T15:40:53.072Z,4.52
2018-02-20T15:43:20.688Z,4.58
2018-02-20T15:45:48.188Z,4.58
2018-02-20T15:48:15.738Z,4.29
2018-02-20T15:50:43.270Z,4.20
2018-02-20T15:53:10.819Z,4.29
2018-02-20T15:55:38.348Z,4.29
2018-02-20T15:58:05.853Z,4.21
2018-02-20T16:00:33.450Z,4.33
2018-02-20T16:03:01.039Z,4.13
2018-02-20T16:05:28.644Z,4.15
2018-02-20T16:07:56.180Z,3.95
2018-02-20T16:10:23.942Z,4.01
2018-02-20T16:12:51.928Z,3.86
2018-02-20T16:15:19.449Z,4.02
2018-02-20T16:17:46.978Z,3.91
2018-02-20T16:20:14.502Z,3.98
2018-02-20T16:22:42.022Z,4.01
2018-02-20T16:25:10.422Z,3.94
2018-02-20T16:27:38.075Z,4.01
2018-02-20T16:30:05.643Z,4.01
2018-02-20T16:32:33.192Z,3.91
2018-02-20T16:35:00.891Z,4.03
2018-02-20T16:37:28.482Z,4.08
2018-02-20T16:39:56.924Z,4.12
2018-02-20T16:42:24.572Z,4.14
2018-02-20T16:44:52.242Z,4.27
2018-02-20T16:47:19.742Z,4.25
2018-02-20T16:49:47.257Z,4.25
2018-02-20T16:52:14.844Z,4.25
2018-02-20T16:54:42.402Z,4.19
2018-02-20T16:57:09.995Z,4.32
2018-02-20T16:59:37.614Z,4.31
2018-02-20T17:02:05.131Z,4.27
2018-02-20T17:04:32.710Z,4.16
2018-02-20T17:07:00.227Z,4.09
2018-02-20T17:09:27.759Z,3.97
2018-02-20T17:11:55.333Z,3.96
2018-02-20T17:14:22.872Z,4.11
2018-02-20T17:16:50.408Z,4.19
2018-02-20T17:19:17.942Z,4.38
2018-02-20T17:21:45.468Z,4.31
2018-02-20T17:24:12.981Z,4.12
2018-02-20T17:26:40.498Z,4.07
2018-02-20T17:29:08.070Z,3.88
2018-02-20T17:31:35.579Z,3.69
2018-02-20T17:34:03.060Z,3.76
2018-02-20T17:36:30.605Z,3.76
2018-02-20T17:38:58.208Z,3.88
2018-02-20T17:41:25.824Z,3.86
2018-02-20T17:43:53.323Z,3.82
2018-02-20T17:46:20.865Z,3.92
2018-02-20T17:48:48.369Z,3.92
2018-02-20T17:51:16.058Z,3.83
2018-02-20T17:53:44.111Z,3.85
2018-02-20T17:56:11.740Z,3.89
2018-02-20T17:58:40.017Z,3.97
2018-02-20T18:01:07.554Z,3.95
2018-02-20T18:03:35.108Z,4.09
2018-02-20T18:06:02.946Z,4.11
2018-02-20T18:08:30.500Z,4.15
2018-02-20T18:10:58.007Z,4.08
2018-02-20T18:13:25.557Z,4.16
2018-02-20T18:15:53.102Z,4.24
2018-02-20T18:18:21.354Z,4.04
2018-02-20T18:20:48.971Z,4.10
2018-02-20T18:23:16.583Z,3.97
2018-02-20T18:25:44.203Z,3.89
2018-02-20T18:28:11.756Z,4.04
2018-02-20T18:30:39.401Z,4.21
2018-02-20T18:33:06.894Z,4.24
2018-02-20T18:35:34.430Z,4.31
2018-02-20T18:38:01.934Z,4.38
2018-02-20T18:40:29.467Z,4.23
2018-02-20T18:42:56.986Z,3.97
2018-02-20T18:45:24.700Z,4.13
2018-02-20T18:47:52.280Z,4.23
2018-02-20T18:50:19.852Z,4.24
2018-02-20T18:52:47.393Z,4.26
2018-02-20T18:55:14.986Z,4.31
2018-02-20T18:57:42.546Z,4.26
2018-02-20T19:00:10.113Z,4.24
2018-02-20T19:02:38.442Z,4.27
2018-02-20T19:05:05.943Z,4.16
2018-02-20T19:07:33.472Z,4.21
2018-02-20T19:10:00.984Z,4.31
2018-02-20T19:12:28.547Z,4.42
2018-02-20T19:14:56.991Z,4.46
2018-02-20T19:17:24.558Z,4.46
2018-02-20T19:19:52.152Z,4.38
2018-02-20T19:22:19.693Z,4.33
2018-02-20T19:24:47.475Z,4.28
2018-02-20T19:27:15.028Z,4.26
2018-02-20T19:29:42.635Z,4.19
2018-02-20T19:32:10.142Z,3.99
2018-02-20T19:34:37.662Z,3.97
2018-02-20T19:37:05.183Z,3.99
2018-02-20T19:39:32.722Z,3.93
2018-02-20T19:42:00.263Z,3.98
2018-02-20T19:44:27.835Z,3.98
2018-02-20T19:46:55.367Z,4.01
2018-02-20T19:49:22.882Z,3.95
2018-02-20T19:51:50.491Z,3.98
2018-02-20T19:54:18.008Z,4.02
2018-02-20T19:56:46.230Z,3.99
2018-02-20T19:59:13.807Z,3.75
2018-02-20T20:01:41.730Z,3.72
2018-02-20T20:04:09.302Z,3.81
2018-02-20T20:06:36.851Z,3.82
2018-02-20T20:09:04.349Z,3.87
2018-02-20T20:11:31.924Z,3.83
2018-02-20T20:13:59.452Z,3.88
2018-02-20T20:16:27.895Z,3.97
2018-02-20T20:18:55.454Z,3.94
2018-02-20T20:21:23.328Z,3.87
2018-02-20T20:23:50.834Z,3.95
2018-02-20T20:26:18.365Z,3.92
2018-02-20T20:28:46.055Z,3.80
2018-02-20T20:31:13.594Z,3.79
2018-02-20T20:33:41.136Z,3.79
2018-02-20T20:36:08.674Z,3.80
2018-02-20T20:38:36.223Z,3.82
2018-02-20T20:41:03.762Z,3.83
2018-02-20T20:43:31.368Z,3.75
2018-02-20T20:45:58.883Z,3.65
2018-02-20T20:48:26.429Z,3.70
2018-02-20T20:50:54.065Z,3.50
2018-02-20T20:53:21.602Z,3.48
2018-02-20T20:55:49.198Z,3.42
2018-02-20T20:58:16.807Z,3.29
2018-02-20T21:00:44.396Z,3.29
2018-02-20T21:03:11.918Z,3.30
2018-02-20T21:05:39.487Z,3.36
2018-02-20T21:08:07.044Z,3.40
2018-02-20T21:10:34.569Z,3.55
2018-02-20T21:13:02.074Z,3.59
2018-02-20T21:15:29.686Z,3.49
2018-02-20T21:17:57.197Z,3.31
2018-02-20T21:20:24.721Z,3.32
2018-02-20T21:22:52.229Z,3.46
2018-02-20T21:25:19.720Z,3.45
2018-02-20T21:27:47.245Z,3.52
2018-02-20T21:30:14.789Z,3.44
2018-02-20T21:32:42.411Z,3.12
2018-02-20T21:35:09.940Z,3.16
2018-02-20T21:37:37.506Z,3.29
2018-02-20T21:40:05.022Z,3.46
2018-02-20T21:42:32.550Z,3.48
2018-02-20T21:45:00.069Z,3.59
2018-02-20T21:47:27.657Z,3.44
2018-02-20T21:49:55.203Z,3.36
2018-02-20T21:52:22.791Z,3.34
2018-02-20T21:54:50.428Z,3.30
2018-02-20T21:57:17.967Z,3.31
2018-02-20T21:59:45.576Z,3.34
2018-02-20T22:02:13.068Z,3.31
2018-02-20T22:04:40.602Z,3.20
2018-02-20T22:07:08.120Z,3.31
2018-02-20T22:09:35.664Z,3.36
2018-02-20T22:12:03.247Z,3.25
2018-02-20T22:14:31.377Z,3.06
2018-02-20T22:16:58.868Z,3.07
2018-02-20T22:19:26.376Z,3.06
2018-02-20T22:21:53.885Z,3.09
2018-02-20T22:24:21.412Z,3.18
2018-02-20T22:26:49.003Z,3.23
2018-02-20T22:29:16.573Z,3.29
2018-02-20T22:31:44.170Z,3.23
2018-02-20T22:34:11.679Z,3.09
2018-02-20T22:36:39.328Z,3.09
2018-02-20T22:39:06.945Z,3.15
2018-02-20T22:41:34.520Z,3.03
2018-02-20T22:44:02.037Z,3.02
2018-02-20T22:46:29.527Z,3.13
2018-02-20T22:48:57.050Z,3.06
2018-02-20T22:51:24.687Z,3.10
2018-02-20T22:53:52.197Z,3.03
2018-02-20T22:56:19.702Z,2.79
2018-02-20T22:58:47.225Z,2.90
2018-02-20T23:01:14.719Z,2.86
2018-02-20T23:03:42.224Z,2.76
2018-02-20T23:06:09.726Z,2.61
2018-02-20T23:08:37.225Z,2.67
2018-02-20T23:11:05.584Z,2.59
2018-02-20T23:13:33.179Z,2.31
2018-02-20T23:16:00.806Z,2.33
2018-02-20T23:18:28.306Z,2.29
2018-02-20T23:20:55.807Z,2.49
2018-02-20T23:23:24.652Z,2.56
2018-02-20T23:25:52.151Z,2.66
2018-02-20T23:28:19.672Z,2.67
2018-02-20T23:30:47.210Z,2.68
2018-02-20T23:33:14.738Z,2.50
2018-02-20T23:35:42.252Z,2.55
2018-02-20T23:38:09.761Z,2.12
2018-02-20T23:40:37.271Z,2.16
2018-02-20T23:43:04.786Z,2.17
2018-02-20T23:45:32.279Z,2.33
2018-02-20T23:47:59.796Z,2.49
2018-02-20T23:50:27.276Z,2.34
2018-02-20T23:52:54.802Z,2.31
2018-02-20T23:55:22.316Z,2.19
2018-02-20T23:57:49.846Z,2.35
